sensor_id;sensor_type;location;lat;lon;timestamp;P1;durP1;ratioP1;P2;durP2;ratioP2
75781;SDS011;64400;44.762;37.698;2023-02-03T00:00:00;18.92;;;12.02;;
75781;SDS011;64400;44.762;37.698;2023-02-03T00:02:37;18.15;;;11.38;;
75781;SDS011;64400;44.762;37.698;2023-02-03T00:05:05;17.63;;;9.43;;
75781;SDS011;64400;44.762;37.698;2023-02-03T00:07:33;14.70;;;8.35;;
75781;SDS011;64400;44.762;37.698;2023-02-03T00:10:04;14.32;;;8.30;;
75781;SDS011;64400;44.762;37.698;2023-02-03T00:12:33;14.95;;;8.57;;
75781;SDS011;64400;44.762;37.698;2023-02-03T00:15:01;20.52;;;11.88;;
75781;SDS011;64400;44.762;37.698;2023-02-03T00:17:29;25.02;;;14.68;;
75781;SDS011;64400;44.762;37.698;2023-02-03T00:19:57;22.15;;;13.65;;
75781;SDS011;64400;44.762;37.698;2023-02-03T00:22:25;23.25;;;15.40;;
75781;SDS011;64400;44.762;37.698;2023-02-03T00:24:53;25.98;;;15.05;;
75781;SDS011;64400;44.762;37.698;2023-02-03T00:27:21;23.25;;;14.43;;
75781;SDS011;64400;44.762;37.698;2023-02-03T00:29:49;24.25;;;14.77;;
75781;SDS011;64400;44.762;37.698;2023-02-03T00:32:17;23.98;;;14.93;;
75781;SDS011;64400;44.762;37.698;2023-02-03T00:34:45;23.15;;;14.75;;
75781;SDS011;64400;44.762;37.698;2023-02-03T00:37:12;22.80;;;14.68;;
75781;SDS011;64400;44.762;37.698;2023-02-03T00:39:40;23.30;;;14.05;;
75781;SDS011;64400;44.762;37.698;2023-02-03T00:42:08;23.38;;;12.80;;
75781;SDS011;64400;44.762;37.698;2023-02-03T00:44:36;27.42;;;13.35;;
75781;SDS011;64400;44.762;37.698;2023-02-03T00:47:05;21.45;;;12.70;;
75781;SDS011;64400;44.762;37.698;2023-02-03T00:49:33;25.60;;;14.30;;
75781;SDS011;64400;44.762;37.698;2023-02-03T00:52:01;20.60;;;14.35;;
75781;SDS011;64400;44.762;37.698;2023-02-03T00:54:29;20.33;;;13.48;;
75781;SDS011;64400;44.762;37.698;2023-02-03T00:56:59;22.40;;;12.82;;
75781;SDS011;64400;44.762;37.698;2023-02-03T00:59:27;20.95;;;13.50;;
75781;SDS011;64400;44.762;37.698;2023-02-03T01:01:55;18.67;;;11.35;;
75781;SDS011;64400;44.762;37.698;2023-02-03T01:04:23;17.90;;;10.68;;
75781;SDS011;64400;44.762;37.698;2023-02-03T01:06:52;17.13;;;11.13;;
75781;SDS011;64400;44.762;37.698;2023-02-03T01:09:23;19.17;;;9.65;;
75781;SDS011;64400;44.762;37.698;2023-02-03T01:11:53;17.33;;;10.30;;
75781;SDS011;64400;44.762;37.698;2023-02-03T01:14:21;20.80;;;10.95;;
75781;SDS011;64400;44.762;37.698;2023-02-03T01:16:49;19.27;;;10.10;;
75781;SDS011;64400;44.762;37.698;2023-02-03T01:19:17;17.95;;;10.38;;
75781;SDS011;64400;44.762;37.698;2023-02-03T01:21:45;17.35;;;9.77;;
75781;SDS011;64400;44.762;37.698;2023-02-03T01:24:12;19.77;;;10.48;;
75781;SDS011;64400;44.762;37.698;2023-02-03T01:26:43;17.83;;;10.02;;
75781;SDS011;64400;44.762;37.698;2023-02-03T01:29:11;20.35;;;10.23;;
75781;SDS011;64400;44.762;37.698;2023-02-03T01:31:40;15.57;;;9.63;;
75781;SDS011;64400;44.762;37.698;2023-02-03T01:34:12;19.15;;;9.98;;
75781;SDS011;64400;44.762;37.698;2023-02-03T01:36:42;19.27;;;9.70;;
75781;SDS011;64400;44.762;37.698;2023-02-03T01:39:10;18.70;;;9.70;;
75781;SDS011;64400;44.762;37.698;2023-02-03T01:41:39;17.27;;;9.75;;
75781;SDS011;64400;44.762;37.698;2023-02-03T01:47:16;19.75;;;9.57;;
75781;SDS011;64400;44.762;37.698;2023-02-03T01:52:29;19.33;;;9.95;;
75781;SDS011;64400;44.762;37.698;2023-02-03T01:54:59;26.23;;;15.18;;
75781;SDS011;64400;44.762;37.698;2023-02-03T01:57:55;32.75;;;21.90;;
75781;SDS011;64400;44.762;37.698;2023-02-03T02:00:25;24.48;;;14.90;;
75781;SDS011;64400;44.762;37.698;2023-02-03T02:02:54;19.08;;;11.13;;
75781;SDS011;64400;44.762;37.698;2023-02-03T02:07:59;21.95;;;12.43;;
75781;SDS011;64400;44.762;37.698;2023-02-03T02:10:30;20.40;;;12.48;;
75781;SDS011;64400;44.762;37.698;2023-02-03T02:13:00;19.80;;;11.65;;
75781;SDS011;64400;44.762;37.698;2023-02-03T02:16:16;19.60;;;12.00;;
75781;SDS011;64400;44.762;37.698;2023-02-03T02:38:20;26.73;;;18.58;;
75781;SDS011;64400;44.762;37.698;2023-02-03T02:41:17;30.75;;;19.15;;
75781;SDS011;64400;44.762;37.698;2023-02-03T02:43:55;25.23;;;16.80;;
75781;SDS011;64400;44.762;37.698;2023-02-03T02:49:33;27.98;;;18.27;;
75781;SDS011;64400;44.762;37.698;2023-02-03T02:52:13;25.48;;;18.00;;
75781;SDS011;64400;44.762;37.698;2023-02-03T02:54:44;26.35;;;17.70;;
75781;SDS011;64400;44.762;37.698;2023-02-03T02:57:16;23.98;;;17.25;;
75781;SDS011;64400;44.762;37.698;2023-02-03T02:59:48;29.67;;;18.40;;
75781;SDS011;64400;44.762;37.698;2023-02-03T03:02:16;28.52;;;18.08;;
75781;SDS011;64400;44.762;37.698;2023-02-03T03:04:45;26.05;;;17.23;;
75781;SDS011;64400;44.762;37.698;2023-02-03T03:07:17;28.65;;;18.42;;
75781;SDS011;64400;44.762;37.698;2023-02-03T03:09:53;26.85;;;18.52;;
75781;SDS011;64400;44.762;37.698;2023-02-03T03:12:34;27.92;;;17.92;;
75781;SDS011;64400;44.762;37.698;2023-02-03T03:15:09;25.95;;;17.25;;
75781;SDS011;64400;44.762;37.698;2023-02-03T03:17:44;27.23;;;17.77;;
75781;SDS011;64400;44.762;37.698;2023-02-03T03:20:19;26.27;;;18.73;;
75781;SDS011;64400;44.762;37.698;2023-02-03T03:22:53;25.65;;;18.10;;
75781;SDS011;64400;44.762;37.698;2023-02-03T03:26:28;23.98;;;17.75;;
75781;SDS011;64400;44.762;37.698;2023-02-03T03:28:50;27.85;;;18.58;;
75781;SDS011;64400;44.762;37.698;2023-02-03T03:31:21;32.90;;;20.42;;
75781;SDS011;64400;44.762;37.698;2023-02-03T03:33:50;35.70;;;25.10;;
75781;SDS011;64400;44.762;37.698;2023-02-03T03:36:21;45.33;;;28.52;;
75781;SDS011;64400;44.762;37.698;2023-02-03T03:39:01;42.75;;;27.88;;
75781;SDS011;64400;44.762;37.698;2023-02-03T03:44:29;42.15;;;27.92;;
75781;SDS011;64400;44.762;37.698;2023-02-03T03:47:51;40.00;;;24.80;;
75781;SDS011;64400;44.762;37.698;2023-02-03T03:49:57;33.78;;;22.60;;
75781;SDS011;64400;44.762;37.698;2023-02-03T03:52:30;38.05;;;23.13;;
75781;SDS011;64400;44.762;37.698;2023-02-03T03:55:02;30.38;;;18.80;;
75781;SDS011;64400;44.762;37.698;2023-02-03T03:58:17;29.73;;;19.90;;
75781;SDS011;64400;44.762;37.698;2023-02-03T04:00:31;26.58;;;18.13;;
75781;SDS011;64400;44.762;37.698;2023-02-03T04:03:21;24.00;;;14.45;;
75781;SDS011;64400;44.762;37.698;2023-02-03T04:05:52;17.38;;;11.15;;
75781;SDS011;64400;44.762;37.698;2023-02-03T04:08:20;17.27;;;9.45;;
75781;SDS011;64400;44.762;37.698;2023-02-03T04:10:48;16.45;;;9.35;;
75781;SDS011;64400;44.762;37.698;2023-02-03T04:13:15;18.23;;;11.15;;
75781;SDS011;64400;44.762;37.698;2023-02-03T04:15:46;24.70;;;14.15;;
75781;SDS011;64400;44.762;37.698;2023-02-03T04:18:14;46.03;;;24.48;;
75781;SDS011;64400;44.762;37.698;2023-02-03T04:20:42;59.10;;;26.75;;
75781;SDS011;64400;44.762;37.698;2023-02-03T04:23:10;39.47;;;20.13;;
75781;SDS011;64400;44.762;37.698;2023-02-03T04:25:38;54.55;;;25.85;;
75781;SDS011;64400;44.762;37.698;2023-02-03T04:28:06;47.58;;;23.50;;
75781;SDS011;64400;44.762;37.698;2023-02-03T04:30:34;38.88;;;19.90;;
75781;SDS011;64400;44.762;37.698;2023-02-03T04:33:02;25.42;;;12.80;;
75781;SDS011;64400;44.762;37.698;2023-02-03T04:35:30;19.75;;;10.68;;
75781;SDS011;64400;44.762;37.698;2023-02-03T04:37:58;27.50;;;14.45;;
75781;SDS011;64400;44.762;37.698;2023-02-03T04:40:26;26.27;;;14.70;;
75781;SDS011;64400;44.762;37.698;2023-02-03T04:42:54;31.67;;;15.85;;
75781;SDS011;64400;44.762;37.698;2023-02-03T04:45:22;23.98;;;13.32;;
75781;SDS011;64400;44.762;37.698;2023-02-03T04:47:50;27.70;;;15.90;;
75781;SDS011;64400;44.762;37.698;2023-02-03T04:50:20;33.22;;;17.15;;
75781;SDS011;64400;44.762;37.698;2023-02-03T04:52:48;33.05;;;18.33;;
75781;SDS011;64400;44.762;37.698;2023-02-03T04:55:16;37.65;;;19.50;;
75781;SDS011;64400;44.762;37.698;2023-02-03T04:57:44;42.35;;;23.35;;
75781;SDS011;64400;44.762;37.698;2023-02-03T05:00:12;32.15;;;18.63;;
75781;SDS011;64400;44.762;37.698;2023-02-03T05:02:40;28.38;;;16.92;;
75781;SDS011;64400;44.762;37.698;2023-02-03T05:05:08;29.13;;;16.08;;
75781;SDS011;64400;44.762;37.698;2023-02-03T05:07:36;29.48;;;17.38;;
75781;SDS011;64400;44.762;37.698;2023-02-03T05:10:04;32.42;;;18.10;;
75781;SDS011;64400;44.762;37.698;2023-02-03T05:12:32;35.65;;;18.00;;
75781;SDS011;64400;44.762;37.698;2023-02-03T05:15:00;34.47;;;18.75;;
75781;SDS011;64400;44.762;37.698;2023-02-03T05:17:29;33.97;;;19.10;;
75781;SDS011;64400;44.762;37.698;2023-02-03T05:19:57;33.35;;;19.25;;
75781;SDS011;64400;44.762;37.698;2023-02-03T05:22:24;38.25;;;19.50;;
75781;SDS011;64400;44.762;37.698;2023-02-03T05:24:52;32.10;;;17.88;;
75781;SDS011;64400;44.762;37.698;2023-02-03T05:27:20;27.98;;;16.10;;
75781;SDS011;64400;44.762;37.698;2023-02-03T05:29:48;23.13;;;13.63;;
75781;SDS011;64400;44.762;37.698;2023-02-03T05:32:16;26.00;;;14.27;;
75781;SDS011;64400;44.762;37.698;2023-02-03T05:34:44;23.48;;;14.18;;
75781;SDS011;64400;44.762;37.698;2023-02-03T05:37:12;25.75;;;14.88;;
75781;SDS011;64400;44.762;37.698;2023-02-03T05:39:39;26.08;;;14.18;;
75781;SDS011;64400;44.762;37.698;2023-02-03T05:42:07;28.95;;;16.38;;
75781;SDS011;64400;44.762;37.698;2023-02-03T05:44:35;28.13;;;15.15;;
75781;SDS011;64400;44.762;37.698;2023-02-03T05:47:03;25.85;;;15.05;;
75781;SDS011;64400;44.762;37.698;2023-02-03T05:49:31;24.13;;;14.85;;
75781;SDS011;64400;44.762;37.698;2023-02-03T05:51:59;19.52;;;11.30;;
75781;SDS011;64400;44.762;37.698;2023-02-03T05:54:27;16.75;;;9.00;;
75781;SDS011;64400;44.762;37.698;2023-02-03T05:56:58;20.35;;;9.82;;
75781;SDS011;64400;44.762;37.698;2023-02-03T05:59:26;18.50;;;9.73;;
75781;SDS011;64400;44.762;37.698;2023-02-03T06:01:54;37.17;;;22.13;;
75781;SDS011;64400;44.762;37.698;2023-02-03T06:04:26;13.82;;;6.20;;
75781;SDS011;64400;44.762;37.698;2023-02-03T06:07:15;15.93;;;9.27;;
75781;SDS011;64400;44.762;37.698;2023-02-03T06:10:04;12.90;;;6.38;;
75781;SDS011;64400;44.762;37.698;2023-02-03T06:13:23;26.87;;;14.60;;
75781;SDS011;64400;44.762;37.698;2023-02-03T06:16:09;26.33;;;15.88;;
75781;SDS011;64400;44.762;37.698;2023-02-03T06:18:50;28.15;;;14.88;;
75781;SDS011;64400;44.762;37.698;2023-02-03T06:21:35;32.05;;;17.70;;
75781;SDS011;64400;44.762;37.698;2023-02-03T06:25:02;38.60;;;22.98;;
75781;SDS011;64400;44.762;37.698;2023-02-03T06:27:56;50.65;;;28.77;;
75781;SDS011;64400;44.762;37.698;2023-02-03T06:30:36;35.15;;;18.95;;
75781;SDS011;64400;44.762;37.698;2023-02-03T06:33:22;40.20;;;21.67;;
75781;SDS011;64400;44.762;37.698;2023-02-03T06:35:56;38.85;;;22.00;;
75781;SDS011;64400;44.762;37.698;2023-02-03T06:38:41;37.28;;;21.23;;
75781;SDS011;64400;44.762;37.698;2023-02-03T06:41:19;43.97;;;24.75;;
75781;SDS011;64400;44.762;37.698;2023-02-03T06:44:26;44.47;;;23.75;;
75781;SDS011;64400;44.762;37.698;2023-02-03T06:47:23;37.08;;;22.33;;
75781;SDS011;64400;44.762;37.698;2023-02-03T06:49:53;40.95;;;21.35;;
75781;SDS011;64400;44.762;37.698;2023-02-03T06:52:38;32.17;;;19.98;;
75781;SDS011;64400;44.762;37.698;2023-02-03T06:55:16;29.70;;;16.17;;
75781;SDS011;64400;44.762;37.698;2023-02-03T06:58:01;27.08;;;15.52;;
75781;SDS011;64400;44.762;37.698;2023-02-03T07:01:11;20.48;;;11.48;;
75781;SDS011;64400;44.762;37.698;2023-02-03T07:04:00;22.98;;;12.40;;
75781;SDS011;64400;44.762;37.698;2023-02-03T07:06:39;24.20;;;13.00;;
75781;SDS011;64400;44.762;37.698;2023-02-03T07:09:31;23.23;;;13.80;;
75781;SDS011;64400;44.762;37.698;2023-02-03T07:12:23;22.60;;;12.15;;
75781;SDS011;64400;44.762;37.698;2023-02-03T07:20:04;21.85;;;12.77;;
75781;SDS011;64400;44.762;37.698;2023-02-03T07:22:33;17.40;;;11.52;;
75781;SDS011;64400;44.762;37.698;2023-02-03T07:25:05;21.85;;;12.55;;
75781;SDS011;64400;44.762;37.698;2023-02-03T07:27:55;19.00;;;11.05;;
75781;SDS011;64400;44.762;37.698;2023-02-03T07:31:01;20.80;;;10.93;;
75781;SDS011;64400;44.762;37.698;2023-02-03T07:33:31;19.00;;;11.60;;
75781;SDS011;64400;44.762;37.698;2023-02-03T07:36:18;22.40;;;11.25;;
75781;SDS011;64400;44.762;37.698;2023-02-03T07:38:59;19.95;;;11.02;;
75781;SDS011;64400;44.762;37.698;2023-02-03T07:41:47;22.38;;;10.75;;
75781;SDS011;64400;44.762;37.698;2023-02-03T07:44:29;23.60;;;13.40;;
75781;SDS011;64400;44.762;37.698;2023-02-03T07:47:48;23.80;;;14.15;;
75781;SDS011;64400;44.762;37.698;2023-02-03T07:50:35;25.17;;;13.93;;
75781;SDS011;64400;44.762;37.698;2023-02-03T07:53:30;27.50;;;14.32;;
75781;SDS011;64400;44.762;37.698;2023-02-03T07:56:24;20.30;;;11.10;;
75781;SDS011;64400;44.762;37.698;2023-02-03T08:00:03;19.50;;;9.35;;
75781;SDS011;64400;44.762;37.698;2023-02-03T08:02:58;13.25;;;7.13;;
75781;SDS011;64400;44.762;37.698;2023-02-03T08:06:32;12.13;;;5.43;;
75781;SDS011;64400;44.762;37.698;2023-02-03T08:09:23;7.32;;;3.60;;
75781;SDS011;64400;44.762;37.698;2023-02-03T08:11:58;4.28;;;2.47;;
75781;SDS011;64400;44.762;37.698;2023-02-03T08:14:26;5.43;;;3.05;;
75781;SDS011;64400;44.762;37.698;2023-02-03T08:16:58;6.45;;;3.00;;
75781;SDS011;64400;44.762;37.698;2023-02-03T08:20:18;4.20;;;2.30;;
75781;SDS011;64400;44.762;37.698;2023-02-03T08:23:26;3.53;;;2.15;;
75781;SDS011;64400;44.762;37.698;2023-02-03T08:25:55;4.30;;;2.05;;
75781;SDS011;64400;44.762;37.698;2023-02-03T08:28:23;4.75;;;2.03;;
75781;SDS011;64400;44.762;37.698;2023-02-03T08:30:53;4.93;;;2.40;;
75781;SDS011;64400;44.762;37.698;2023-02-03T08:33:31;7.22;;;3.00;;
75781;SDS011;64400;44.762;37.698;2023-02-03T08:36:19;3.03;;;1.42;;
75781;SDS011;64400;44.762;37.698;2023-02-03T08:38:58;2.67;;;1.42;;
75781;SDS011;64400;44.762;37.698;2023-02-03T08:41:29;2.25;;;1.10;;
75781;SDS011;64400;44.762;37.698;2023-02-03T08:44:02;3.13;;;1.95;;
75781;SDS011;64400;44.762;37.698;2023-02-03T08:46:32;3.17;;;1.75;;
75781;SDS011;64400;44.762;37.698;2023-02-03T08:49:16;2.80;;;1.65;;
75781;SDS011;64400;44.762;37.698;2023-02-03T08:52:55;3.05;;;1.42;;
75781;SDS011;64400;44.762;37.698;2023-02-03T08:55:53;1.88;;;1.17;;
75781;SDS011;64400;44.762;37.698;2023-02-03T08:59:05;3.50;;;1.58;;
75781;SDS011;64400;44.762;37.698;2023-02-03T09:01:33;2.10;;;1.02;;
75781;SDS011;64400;44.762;37.698;2023-02-03T09:04:01;0.50;;;0.40;;
75781;SDS011;64400;44.762;37.698;2023-02-03T09:06:34;1.83;;;0.82;;
75781;SDS011;64400;44.762;37.698;2023-02-03T09:09:32;2.85;;;1.30;;
75781;SDS011;64400;44.762;37.698;2023-02-03T09:12:07;2.20;;;0.90;;
75781;SDS011;64400;44.762;37.698;2023-02-03T09:14:35;2.38;;;0.80;;
75781;SDS011;64400;44.762;37.698;2023-02-03T09:17:04;2.35;;;1.15;;
75781;SDS011;64400;44.762;37.698;2023-02-03T09:19:34;4.50;;;2.00;;
75781;SDS011;64400;44.762;37.698;2023-02-03T09:22:03;7.88;;;3.00;;
75781;SDS011;64400;44.762;37.698;2023-02-03T09:24:33;13.95;;;5.10;;
75781;SDS011;64400;44.762;37.698;2023-02-03T09:27:05;2.67;;;1.20;;
75781;SDS011;64400;44.762;37.698;2023-02-03T09:29:35;2.65;;;1.13;;
75781;SDS011;64400;44.762;37.698;2023-02-03T09:32:03;3.25;;;1.00;;
75781;SDS011;64400;44.762;37.698;2023-02-03T09:34:42;4.63;;;1.50;;
75781;SDS011;64400;44.762;37.698;2023-02-03T09:37:10;4.70;;;1.65;;
75781;SDS011;64400;44.762;37.698;2023-02-03T09:47:16;2.53;;;1.17;;
75781;SDS011;64400;44.762;37.698;2023-02-03T09:50:33;3.10;;;0.90;;
75781;SDS011;64400;44.762;37.698;2023-02-03T10:07:04;3.63;;;1.83;;
75781;SDS011;64400;44.762;37.698;2023-02-03T10:12:36;9.63;;;4.95;;
75781;SDS011;64400;44.762;37.698;2023-02-03T10:18:12;9.52;;;3.78;;
75781;SDS011;64400;44.762;37.698;2023-02-03T10:20:46;7.43;;;3.00;;
75781;SDS011;64400;44.762;37.698;2023-02-03T10:51:49;2.88;;;1.10;;
75781;SDS011;64400;44.762;37.698;2023-02-03T10:54:52;3.33;;;1.05;;
75781;SDS011;64400;44.762;37.698;2023-02-03T10:57:42;1.10;;;0.70;;
75781;SDS011;64400;44.762;37.698;2023-02-03T11:00:43;1.85;;;0.90;;
75781;SDS011;64400;44.762;37.698;2023-02-03T11:03:29;1.15;;;0.60;;
75781;SDS011;64400;44.762;37.698;2023-02-03T11:06:04;0.93;;;0.50;;
75781;SDS011;64400;44.762;37.698;2023-02-03T11:08:59;2.47;;;0.70;;
75781;SDS011;64400;44.762;37.698;2023-02-03T11:11:59;0.65;;;0.47;;
75781;SDS011;64400;44.762;37.698;2023-02-03T11:15:13;4.30;;;0.85;;
75781;SDS011;64400;44.762;37.698;2023-02-03T11:17:52;1.67;;;0.80;;
75781;SDS011;64400;44.762;37.698;2023-02-03T11:21:12;2.22;;;0.77;;
75781;SDS011;64400;44.762;37.698;2023-02-03T11:24:05;3.60;;;1.10;;
75781;SDS011;64400;44.762;37.698;2023-02-03T11:27:10;2.80;;;1.17;;
75781;SDS011;64400;44.762;37.698;2023-02-03T11:30:34;2.95;;;1.50;;
75781;SDS011;64400;44.762;37.698;2023-02-03T11:34:01;6.30;;;2.83;;
75781;SDS011;64400;44.762;37.698;2023-02-03T11:41:18;5.55;;;2.10;;
75781;SDS011;64400;44.762;37.698;2023-02-03T11:43:54;3.25;;;1.52;;
75781;SDS011;64400;44.762;37.698;2023-02-03T11:47:08;3.17;;;1.20;;
75781;SDS011;64400;44.762;37.698;2023-02-03T11:53:49;4.97;;;1.20;;
75781;SDS011;64400;44.762;37.698;2023-02-03T12:02:58;9.98;;;1.50;;
75781;SDS011;64400;44.762;37.698;2023-02-03T12:14:47;3.03;;;1.00;;
75781;SDS011;64400;44.762;37.698;2023-02-03T12:20:43;3.15;;;1.02;;
75781;SDS011;64400;44.762;37.698;2023-02-03T12:23:36;10.02;;;3.95;;
75781;SDS011;64400;44.762;37.698;2023-02-03T12:31:45;2.20;;;0.90;;
75781;SDS011;64400;44.762;37.698;2023-02-03T12:34:36;2.28;;;1.08;;
75781;SDS011;64400;44.762;37.698;2023-02-03T12:37:33;3.47;;;1.30;;
75781;SDS011;64400;44.762;37.698;2023-02-03T12:40:45;3.05;;;0.85;;
75781;SDS011;64400;44.762;37.698;2023-02-03T12:43:38;3.10;;;0.70;;
75781;SDS011;64400;44.762;37.698;2023-02-03T12:46:23;2.85;;;0.98;;
75781;SDS011;64400;44.762;37.698;2023-02-03T12:49:44;2.20;;;0.77;;
75781;SDS011;64400;44.762;37.698;2023-02-03T12:55:34;2.75;;;0.90;;
75781;SDS011;64400;44.762;37.698;2023-02-03T13:05:04;2.15;;;1.00;;
75781;SDS011;64400;44.762;37.698;2023-02-03T13:14:52;3.78;;;1.67;;
75781;SDS011;64400;44.762;37.698;2023-02-03T13:30:07;2.20;;;0.80;;
75781;SDS011;64400;44.762;37.698;2023-02-03T13:37:41;3.45;;;1.40;;
75781;SDS011;64400;44.762;37.698;2023-02-03T13:42:39;3.45;;;1.33;;
75781;SDS011;64400;44.762;37.698;2023-02-03T13:46:20;3.75;;;1.50;;
75781;SDS011;64400;44.762;37.698;2023-02-03T13:49:43;3.53;;;1.58;;
75781;SDS011;64400;44.762;37.698;2023-02-03T13:52:47;7.55;;;1.70;;
75781;SDS011;64400;44.762;37.698;2023-02-03T13:56:20;4.00;;;1.50;;
75781;SDS011;64400;44.762;37.698;2023-02-03T14:03:10;3.75;;;2.08;;
75781;SDS011;64400;44.762;37.698;2023-02-03T14:06:10;4.28;;;2.30;;
75781;SDS011;64400;44.762;37.698;2023-02-03T14:13:51;6.57;;;3.30;;
75781;SDS011;64400;44.762;37.698;2023-02-03T14:16:57;5.72;;;2.40;;
75781;SDS011;64400;44.762;37.698;2023-02-03T14:23:37;3.30;;;1.60;;
75781;SDS011;64400;44.762;37.698;2023-02-03T14:26:53;3.92;;;1.50;;
75781;SDS011;64400;44.762;37.698;2023-02-03T14:30:07;4.65;;;2.00;;
75781;SDS011;64400;44.762;37.698;2023-02-03T14:33:07;4.18;;;1.45;;
75781;SDS011;64400;44.762;37.698;2023-02-03T14:42:07;4.07;;;1.98;;
75781;SDS011;64400;44.762;37.698;2023-02-03T15:00:37;7.68;;;3.50;;
75781;SDS011;64400;44.762;37.698;2023-02-03T15:05:52;6.70;;;2.15;;
75781;SDS011;64400;44.762;37.698;2023-02-03T15:08:40;8.05;;;2.50;;
75781;SDS011;64400;44.762;37.698;2023-02-03T15:14:14;14.32;;;4.68;;
75781;SDS011;64400;44.762;37.698;2023-02-03T15:17:02;18.20;;;7.55;;
75781;SDS011;64400;44.762;37.698;2023-02-03T15:32:06;4.60;;;1.50;;
75781;SDS011;64400;44.762;37.698;2023-02-03T15:34:51;3.88;;;1.83;;
75781;SDS011;64400;44.762;37.698;2023-02-03T15:37:21;2.20;;;1.10;;
75781;SDS011;64400;44.762;37.698;2023-02-03T15:40:08;2.15;;;0.80;;
75781;SDS011;64400;44.762;37.698;2023-02-03T15:42:42;3.33;;;1.52;;
75781;SDS011;64400;44.762;37.698;2023-02-03T15:45:52;5.03;;;1.60;;
75781;SDS011;64400;44.762;37.698;2023-02-03T15:49:26;7.32;;;2.58;;
75781;SDS011;64400;44.762;37.698;2023-02-03T15:52:38;5.10;;;2.30;;
75781;SDS011;64400;44.762;37.698;2023-02-03T15:56:02;7.35;;;1.90;;
75781;SDS011;64400;44.762;37.698;2023-02-03T16:33:01;19.65;;;10.48;;
75781;SDS011;64400;44.762;37.698;2023-02-03T16:35:57;26.73;;;13.63;;
75781;SDS011;64400;44.762;37.698;2023-02-03T16:39:08;21.20;;;12.15;;
75781;SDS011;64400;44.762;37.698;2023-02-03T16:41:59;25.45;;;13.98;;
75781;SDS011;64400;44.762;37.698;2023-02-03T16:44:48;14.85;;;8.88;;
75781;SDS011;64400;44.762;37.698;2023-02-03T17:02:34;25.50;;;14.90;;
75781;SDS011;64400;44.762;37.698;2023-02-03T17:09:49;17.80;;;10.38;;
75781;SDS011;64400;44.762;37.698;2023-02-03T17:16:55;21.25;;;12.75;;
75781;SDS011;64400;44.762;37.698;2023-02-03T17:51:59;32.17;;;20.92;;
75781;SDS011;64400;44.762;37.698;2023-02-03T18:01:51;29.90;;;15.50;;
75781;SDS011;64400;44.762;37.698;2023-02-03T18:19:27;15.48;;;8.98;;
75781;SDS011;64400;44.762;37.698;2023-02-03T18:22:55;12.35;;;6.60;;
75781;SDS011;64400;44.762;37.698;2023-02-03T18:29:17;7.43;;;3.97;;
75781;SDS011;64400;44.762;37.698;2023-02-03T18:31:51;8.50;;;3.95;;
75781;SDS011;64400;44.762;37.698;2023-02-03T18:34:35;5.77;;;3.20;;
75781;SDS011;64400;44.762;37.698;2023-02-03T18:37:26;5.15;;;2.40;;
75781;SDS011;64400;44.762;37.698;2023-02-03T18:40:26;4.57;;;2.47;;
75781;SDS011;64400;44.762;37.698;2023-02-03T18:46:54;4.05;;;1.38;;
75781;SDS011;64400;44.762;37.698;2023-02-03T18:49:54;3.85;;;1.65;;
75781;SDS011;64400;44.762;37.698;2023-02-03T18:52:52;4.45;;;1.75;;
75781;SDS011;64400;44.762;37.698;2023-02-03T18:55:24;3.85;;;1.15;;
75781;SDS011;64400;44.762;37.698;2023-02-03T18:58:14;4.03;;;1.50;;
75781;SDS011;64400;44.762;37.698;2023-02-03T19:01:17;6.18;;;1.73;;
75781;SDS011;64400;44.762;37.698;2023-02-03T19:19:15;5.20;;;1.98;;
75781;SDS011;64400;44.762;37.698;2023-02-03T19:32:25;6.93;;;2.77;;
75781;SDS011;64400;44.762;37.698;2023-02-03T19:42:32;7.40;;;2.90;;
75781;SDS011;64400;44.762;37.698;2023-02-03T19:45:22;9.13;;;4.47;;
75781;SDS011;64400;44.762;37.698;2023-02-03T19:48:10;10.10;;;5.47;;
75781;SDS011;64400;44.762;37.698;2023-02-03T19:55:07;7.05;;;4.10;;
75781;SDS011;64400;44.762;37.698;2023-02-03T20:04:26;5.53;;;2.83;;
75781;SDS011;64400;44.762;37.698;2023-02-03T20:08:06;10.43;;;6.68;;
75781;SDS011;64400;44.762;37.698;2023-02-03T20:27:49;4.82;;;2.70;;
75781;SDS011;64400;44.762;37.698;2023-02-03T20:32:00;5.68;;;3.97;;
75781;SDS011;64400;44.762;37.698;2023-02-03T20:39:38;5.63;;;2.90;;
75781;SDS011;64400;44.762;37.698;2023-02-03T21:02:07;5.85;;;3.15;;
75781;SDS011;64400;44.762;37.698;2023-02-03T21:09:47;6.45;;;3.53;;
75781;SDS011;64400;44.762;37.698;2023-02-03T21:22:14;5.57;;;3.55;;
75781;SDS011;64400;44.762;37.698;2023-02-03T21:29:22;4.95;;;3.00;;
75781;SDS011;64400;44.762;37.698;2023-02-03T21:52:45;5.97;;;3.38;;
75781;SDS011;64400;44.762;37.698;2023-02-03T21:56:37;6.38;;;3.10;;
75781;SDS011;64400;44.762;37.698;2023-02-03T22:00:33;4.40;;;2.50;;
75781;SDS011;64400;44.762;37.698;2023-02-03T22:07:36;5.60;;;3.10;;
75781;SDS011;64400;44.762;37.698;2023-02-03T22:14:14;5.47;;;3.00;;
75781;SDS011;64400;44.762;37.698;2023-02-03T22:21:42;10.45;;;4.38;;
75781;SDS011;64400;44.762;37.698;2023-02-03T22:43:11;8.98;;;3.33;;
75781;SDS011;64400;44.762;37.698;2023-02-03T23:11:18;6.30;;;4.27;;
75781;SDS011;64400;44.762;37.698;2023-02-03T23:17:48;7.30;;;3.85;;
75781;SDS011;64400;44.762;37.698;2023-02-03T23:24:19;8.85;;;5.25;;
75781;SDS011;64400;44.762;37.698;2023-02-03T23:27:08;9.98;;;6.20;;
75781;SDS011;64400;44.762;37.698;2023-02-03T23:30:00;10.45;;;6.75;;
75781;SDS011;64400;44.762;37.698;2023-02-03T23:39:30;15.00;;;8.50;;
75781;SDS011;64400;44.762;37.698;2023-02-03T23:55:23;14.85;;;9.25;;
75781;SDS011;64400;44.762;37.698;2023-02-03T23:58:14;16.33;;;8.65;;
